createdAt,value
2022-10-31T00:01:03.156Z,92.10
2022-10-31T00:03:32.667Z,92.10
2022-10-31T00:06:02.690Z,92.10
2022-10-31T00:08:30.972Z,92.10
2022-10-31T00:10:59.172Z,92.10
2022-10-31T00:13:27.398Z,92.10
2022-10-31T00:15:55.640Z,92.00
2022-10-31T00:18:23.876Z,92.10
2022-10-31T00:21:00.785Z,92.00
2022-10-31T00:23:28.972Z,92.00
2022-10-31T00:26:02.706Z,92.00
2022-10-31T00:28:32.773Z,92.00
2022-10-31T00:31:02.078Z,92.00
2022-10-31T00:33:31.025Z,92.00
2022-10-31T00:36:00.560Z,91.90
2022-10-31T00:38:28.706Z,91.90
2022-10-31T00:40:56.894Z,91.90
2022-10-31T00:43:25.246Z,91.90
2022-10-31T00:45:53.698Z,91.90
2022-10-31T00:48:29.961Z,91.80
2022-10-31T00:51:00.017Z,92.10
2022-10-31T00:53:29.225Z,91.80
2022-10-31T00:55:57.479Z,91.80
2022-10-31T00:58:25.932Z,91.70
2022-10-31T01:00:56.893Z,91.70
2022-10-31T01:03:26.659Z,91.70
2022-10-31T01:06:01.790Z,91.70
2022-10-31T01:08:30.992Z,91.70
2022-10-31T01:11:09.374Z,91.70
2022-10-31T01:13:38.215Z,91.70
2022-10-31T01:16:08.923Z,92.10
2022-10-31T01:18:37.405Z,91.70
2022-10-31T01:21:09.171Z,91.70
2022-10-31T01:23:37.730Z,91.70
2022-10-31T01:26:09.853Z,91.60
2022-10-31T01:28:40.421Z,91.60
2022-10-31T01:31:10.504Z,91.60
2022-10-31T01:33:39.285Z,91.60
2022-10-31T01:36:18.385Z,91.60
2022-10-31T01:38:47.312Z,91.60
2022-10-31T01:41:17.632Z,91.50
2022-10-31T01:43:52.449Z,91.50
2022-10-31T01:46:26.169Z,91.50
2022-10-31T01:48:56.340Z,91.50
2022-10-31T01:51:30.865Z,91.50
2022-10-31T01:54:04.081Z,91.50
2022-10-31T01:56:33.758Z,91.40
2022-10-31T01:59:03.893Z,91.40
2022-10-31T02:01:32.290Z,91.40
2022-10-31T02:04:01.023Z,91.40
2022-10-31T02:06:39.443Z,91.40
2022-10-31T02:09:08.775Z,91.40
2022-10-31T02:11:38.684Z,91.40
2022-10-31T02:14:07.159Z,91.40
2022-10-31T02:16:35.758Z,91.40
2022-10-31T02:19:06.983Z,91.30
2022-10-31T02:21:49.503Z,91.30
2022-10-31T02:24:53.242Z,91.30
2022-10-31T02:27:50.548Z,91.30
2022-10-31T02:30:23.816Z,91.30
2022-10-31T02:33:00.094Z,91.30
2022-10-31T02:35:41.394Z,91.20
2022-10-31T02:38:22.141Z,91.20
2022-10-31T02:40:59.021Z,91.30
2022-10-31T02:43:41.080Z,91.30
2022-10-31T02:46:16.477Z,91.20
2022-10-31T02:48:47.824Z,91.20
2022-10-31T02:51:17.817Z,91.30
2022-10-31T02:53:46.159Z,91.20
2022-10-31T02:56:16.233Z,91.20
2022-10-31T02:58:51.137Z,91.20
2022-10-31T03:01:51.664Z,91.20
2022-10-31T03:04:54.312Z,91.20
2022-10-31T03:07:32.523Z,91.10
2022-10-31T03:10:09.370Z,91.10
2022-10-31T03:12:46.018Z,91.10
2022-10-31T03:18:11.492Z,91.10
2022-10-31T03:20:47.914Z,91.00
2022-10-31T03:23:24.301Z,91.10
2022-10-31T03:25:54.968Z,91.10
2022-10-31T03:28:32.175Z,91.00
2022-10-31T03:31:04.740Z,91.00
2022-10-31T03:33:38.056Z,91.00
2022-10-31T03:36:12.875Z,91.10
2022-10-31T03:38:44.718Z,91.00
2022-10-31T03:41:17.936Z,90.90
2022-10-31T03:43:54.964Z,91.00
2022-10-31T03:46:25.998Z,91.00
2022-10-31T03:48:57.006Z,91.00
2022-10-31T03:51:32.684Z,91.00
2022-10-31T03:54:06.304Z,91.00
2022-10-31T03:56:39.581Z,91.00
2022-10-31T03:59:16.010Z,90.90
2022-10-31T04:01:49.497Z,90.90
2022-10-31T04:04:18.485Z,90.90
2022-10-31T04:06:49.344Z,90.90
2022-10-31T04:09:19.858Z,90.80
2022-10-31T04:11:51.414Z,90.80
2022-10-31T04:14:41.941Z,90.80
2022-10-31T04:17:13.809Z,90.80
2022-10-31T04:19:43.992Z,90.80
2022-10-31T04:22:13.825Z,90.80
2022-10-31T04:24:42.742Z,90.80
2022-10-31T04:27:15.085Z,90.80
2022-10-31T04:29:45.543Z,90.70
2022-10-31T04:32:17.258Z,90.70
2022-10-31T04:34:45.664Z,90.70
2022-10-31T04:37:15.312Z,90.70
2022-10-31T04:39:43.704Z,90.70
2022-10-31T04:42:32.089Z,90.70
2022-10-31T04:45:03.836Z,90.70
2022-10-31T04:47:34.525Z,91.10
2022-10-31T04:50:04.089Z,91.10
2022-10-31T04:52:34.653Z,90.80
2022-10-31T04:55:03.985Z,90.70
2022-10-31T04:57:51.825Z,90.70
2022-10-31T05:00:23.214Z,90.70
2022-10-31T05:02:53.815Z,90.70
2022-10-31T05:05:24.250Z,90.70
2022-10-31T05:07:54.315Z,90.70
2022-10-31T05:10:26.998Z,90.60
2022-10-31T05:12:58.506Z,90.60
2022-10-31T05:15:33.360Z,90.50
2022-10-31T05:18:20.460Z,90.70
2022-10-31T05:21:07.592Z,90.60
2022-10-31T05:23:38.684Z,90.50
2022-10-31T05:26:09.292Z,90.50
2022-10-31T05:28:37.691Z,90.50
2022-10-31T05:31:06.308Z,90.50
2022-10-31T05:33:34.741Z,90.40
2022-10-31T05:36:21.284Z,90.30
2022-10-31T05:38:57.450Z,90.40
2022-10-31T05:41:27.757Z,90.30
2022-10-31T05:44:05.389Z,90.30
2022-10-31T05:46:40.103Z,90.30
2022-10-31T05:49:30.354Z,90.60
2022-10-31T05:52:19.045Z,90.30
2022-10-31T05:54:59.273Z,90.30
2022-10-31T05:57:27.897Z,90.20
2022-10-31T05:59:56.312Z,90.60
2022-10-31T06:02:26.208Z,90.20
2022-10-31T06:05:23.566Z,90.20
2022-10-31T06:07:54.655Z,90.20
2022-10-31T06:10:25.927Z,90.10
2022-10-31T06:12:56.568Z,90.20
2022-10-31T06:15:36.479Z,90.20
2022-10-31T06:18:07.093Z,90.10
2022-10-31T06:20:44.706Z,90.10
2022-10-31T06:23:12.999Z,90.10
2022-10-31T06:25:45.863Z,90.10
2022-10-31T06:28:14.284Z,90.00
2022-10-31T06:30:55.367Z,90.00
2022-10-31T06:33:42.430Z,90.00
2022-10-31T06:36:12.338Z,90.00
2022-10-31T06:38:42.653Z,90.10
2022-10-31T06:41:13.132Z,90.10
2022-10-31T06:43:48.382Z,90.50
2022-10-31T06:46:51.867Z,90.20
2022-10-31T06:49:49.975Z,90.10
2022-10-31T06:52:24.283Z,90.10
2022-10-31T06:54:52.977Z,90.10
2022-10-31T06:57:24.101Z,90.10
2022-10-31T06:59:52.586Z,90.10
2022-10-31T07:02:41.905Z,90.10
2022-10-31T07:05:13.683Z,90.00
2022-10-31T07:07:46.385Z,90.10
2022-10-31T07:10:21.956Z,90.10
2022-10-31T07:13:02.132Z,90.00
2022-10-31T07:15:35.878Z,90.00
2022-10-31T07:18:05.291Z,90.00
2022-10-31T07:20:36.211Z,90.10
2022-10-31T07:23:06.011Z,90.10
2022-10-31T07:25:38.670Z,90.10
2022-10-31T07:28:18.756Z,90.10
2022-10-31T07:30:52.313Z,90.20
2022-10-31T07:33:23.188Z,90.20
2022-10-31T07:36:13.549Z,90.20
2022-10-31T07:38:44.820Z,90.30
2022-10-31T07:41:13.242Z,90.30
2022-10-31T07:43:46.589Z,90.30
2022-10-31T07:46:34.220Z,90.30
2022-10-31T07:49:40.960Z,90.30
2022-10-31T07:52:27.626Z,90.30
2022-10-31T07:55:06.141Z,90.20
2022-10-31T07:57:41.953Z,90.30
2022-10-31T08:00:12.881Z,90.20
2022-10-31T08:02:43.789Z,90.30
2022-10-31T08:05:36.094Z,90.30
2022-10-31T08:08:36.001Z,90.30
2022-10-31T08:11:07.292Z,90.40
2022-10-31T08:13:38.568Z,90.30
2022-10-31T08:16:08.562Z,90.30
2022-10-31T08:18:42.513Z,90.40
2022-10-31T08:21:14.760Z,90.40
2022-10-31T08:23:44.308Z,90.40
2022-10-31T08:26:13.246Z,90.40
2022-10-31T08:28:41.553Z,90.40
2022-10-31T08:31:11.195Z,90.40
2022-10-31T08:33:42.732Z,90.50
2022-10-31T08:36:14.227Z,90.50
2022-10-31T08:38:57.725Z,90.50
2022-10-31T08:41:29.802Z,90.50
2022-10-31T08:43:58.457Z,90.50
2022-10-31T08:46:28.422Z,90.50
2022-10-31T08:48:56.834Z,90.60
2022-10-31T08:51:30.787Z,90.60
2022-10-31T08:53:59.475Z,90.60
2022-10-31T08:56:46.217Z,90.60
2022-10-31T08:59:29.895Z,90.60
2022-10-31T09:02:23.608Z,90.70
2022-10-31T09:04:54.928Z,90.70
2022-10-31T09:07:23.783Z,90.70
2022-10-31T09:09:51.993Z,90.70
2022-10-31T09:12:21.485Z,91.10
2022-10-31T09:15:08.903Z,90.70
2022-10-31T09:17:48.580Z,90.70
2022-10-31T09:20:38.808Z,90.80
2022-10-31T09:23:09.509Z,91.10
2022-10-31T09:25:40.493Z,90.80
2022-10-31T09:28:27.185Z,90.80
2022-10-31T09:30:58.873Z,90.80
2022-10-31T09:34:00.941Z,90.90
2022-10-31T09:36:39.342Z,90.90
2022-10-31T09:39:11.310Z,91.40
2022-10-31T09:42:07.402Z,91.20
2022-10-31T09:44:46.633Z,91.30
2022-10-31T09:47:50.053Z,91.30
2022-10-31T09:50:43.342Z,91.40
2022-10-31T09:53:48.217Z,91.40
2022-10-31T09:56:23.559Z,91.50
2022-10-31T09:58:56.711Z,91.50
2022-10-31T10:01:36.075Z,91.50
2022-10-31T10:04:20.930Z,92.00
2022-10-31T10:07:25.104Z,91.70
2022-10-31T10:10:34.939Z,91.70
2022-10-31T10:13:38.417Z,91.70
2022-10-31T10:16:22.875Z,92.10
2022-10-31T10:19:09.387Z,91.80
2022-10-31T10:21:49.931Z,91.80
2022-10-31T10:24:35.731Z,91.90
2022-10-31T10:27:16.837Z,91.90
2022-10-31T10:29:57.915Z,92.00
2022-10-31T10:32:28.778Z,92.00
2022-10-31T10:35:02.179Z,92.10
2022-10-31T10:37:33.945Z,92.10
2022-10-31T10:40:13.229Z,92.20
2022-10-31T10:42:59.045Z,92.20
2022-10-31T10:45:45.077Z,92.20
2022-10-31T10:48:17.411Z,92.20
2022-10-31T10:50:51.677Z,92.30
2022-10-31T10:53:39.294Z,92.30
2022-10-31T10:56:17.881Z,92.50
2022-10-31T10:58:46.953Z,92.40
2022-10-31T11:01:16.833Z,92.50
2022-10-31T11:03:45.164Z,92.50
2022-10-31T11:06:34.905Z,92.80
2022-10-31T11:09:13.360Z,92.40
2022-10-31T11:11:43.778Z,92.40
2022-10-31T11:14:17.316Z,92.50
2022-10-31T11:16:49.463Z,92.80
2022-10-31T11:19:21.582Z,92.50
2022-10-31T11:21:52.749Z,92.50
2022-10-31T11:24:23.885Z,92.50
2022-10-31T11:26:54.714Z,92.50
2022-10-31T11:29:25.892Z,92.50
2022-10-31T11:31:57.132Z,92.50
2022-10-31T11:34:31.471Z,92.60
2022-10-31T11:37:06.775Z,92.60
2022-10-31T11:39:41.786Z,92.60
2022-10-31T11:42:11.811Z,92.60
2022-10-31T11:44:45.145Z,92.70
2022-10-31T11:47:17.968Z,92.70
2022-10-31T11:49:50.556Z,92.70
2022-10-31T11:52:22.939Z,92.70
2022-10-31T11:54:55.370Z,92.70
2022-10-31T11:57:31.190Z,92.70
2022-10-31T12:00:00.821Z,92.70
2022-10-31T12:02:29.944Z,92.80
2022-10-31T12:05:06.259Z,92.70
2022-10-31T12:07:37.058Z,92.70
2022-10-31T12:10:12.934Z,92.70
2022-10-31T12:13:04.959Z,92.60
2022-10-31T12:15:35.598Z,92.60
2022-10-31T12:18:26.939Z,92.60
2022-10-31T12:21:07.783Z,92.70
2022-10-31T12:23:48.721Z,92.70
2022-10-31T12:26:23.392Z,92.70
2022-10-31T12:29:08.913Z,92.70
2022-10-31T12:31:50.416Z,92.80
2022-10-31T12:34:57.171Z,92.80
2022-10-31T12:37:40.577Z,92.80
2022-10-31T12:40:27.439Z,92.90
2022-10-31T12:43:10.574Z,92.90
2022-10-31T12:45:52.271Z,92.90
2022-10-31T12:48:41.053Z,92.90
2022-10-31T12:51:17.921Z,92.90
2022-10-31T12:54:03.038Z,92.90
2022-10-31T12:56:43.164Z,92.90
2022-10-31T12:59:16.990Z,93.00
2022-10-31T13:01:53.422Z,93.00
2022-10-31T13:04:38.312Z,93.00
2022-10-31T13:07:11.998Z,93.00
2022-10-31T13:09:47.494Z,93.00
2022-10-31T13:12:20.118Z,93.10
2022-10-31T13:14:52.636Z,93.10
2022-10-31T13:17:28.290Z,93.00
2022-10-31T13:20:06.733Z,93.10
2022-10-31T13:22:37.555Z,93.10
2022-10-31T13:25:12.875Z,93.00
2022-10-31T13:27:47.655Z,93.10
2022-10-31T13:30:18.438Z,93.10
2022-10-31T13:32:52.001Z,93.10
2022-10-31T13:35:27.337Z,93.00
2022-10-31T13:38:12.742Z,93.00
2022-10-31T13:40:49.584Z,93.00
2022-10-31T13:43:28.319Z,93.00
2022-10-31T13:45:59.928Z,93.00
2022-10-31T13:48:43.701Z,93.00
2022-10-31T13:51:13.055Z,93.00
2022-10-31T13:53:47.618Z,93.40
2022-10-31T13:56:19.758Z,93.00
2022-10-31T13:59:20.847Z,93.00
2022-10-31T14:01:55.440Z,93.00
2022-10-31T14:04:27.503Z,93.00
2022-10-31T14:07:01.233Z,93.00
2022-10-31T14:09:36.164Z,93.00
2022-10-31T14:12:08.281Z,93.00
2022-10-31T14:14:48.073Z,93.00
2022-10-31T14:17:22.165Z,93.00
2022-10-31T14:20:41.495Z,93.00
2022-10-31T14:23:29.856Z,93.00
2022-10-31T14:26:09.512Z,93.00
2022-10-31T14:28:38.090Z,93.00
2022-10-31T14:31:32.928Z,93.00
2022-10-31T14:34:01.922Z,93.00
2022-10-31T14:36:41.548Z,93.00
2022-10-31T14:39:17.858Z,93.00
2022-10-31T14:42:06.603Z,93.00
2022-10-31T14:45:01.242Z,93.00
2022-10-31T14:47:39.031Z,93.00
2022-10-31T14:50:31.892Z,93.00
2022-10-31T14:53:04.946Z,93.00
2022-10-31T14:55:49.494Z,92.90
2022-10-31T14:58:22.511Z,93.00
2022-10-31T15:00:58.377Z,93.00
2022-10-31T15:03:32.668Z,93.00
2022-10-31T15:06:04.469Z,93.00
2022-10-31T15:08:38.758Z,93.00
2022-10-31T15:11:15.432Z,93.00
2022-10-31T15:13:48.932Z,93.00
2022-10-31T15:16:20.636Z,93.00
2022-10-31T15:18:53.747Z,93.00
2022-10-31T15:21:24.650Z,93.00
2022-10-31T15:23:57.359Z,92.90
2022-10-31T15:26:34.238Z,92.90
2022-10-31T15:29:05.588Z,92.90
2022-10-31T15:31:34.647Z,92.90
2022-10-31T15:34:07.766Z,92.90
2022-10-31T15:36:38.617Z,92.90
2022-10-31T15:39:07.338Z,92.90
2022-10-31T15:41:54.480Z,92.90
2022-10-31T15:44:26.933Z,93.00
2022-10-31T15:46:57.897Z,93.00
2022-10-31T15:49:34.685Z,93.00
2022-10-31T15:52:15.811Z,93.00
2022-10-31T15:54:49.181Z,93.00
2022-10-31T15:57:19.182Z,93.00
2022-10-31T15:59:49.433Z,93.10
2022-10-31T16:02:22.443Z,93.10
2022-10-31T16:04:52.668Z,93.10
2022-10-31T16:07:23.497Z,93.10
2022-10-31T16:09:54.553Z,93.10
2022-10-31T16:12:26.025Z,93.10
2022-10-31T16:14:56.552Z,93.10
2022-10-31T16:17:27.688Z,93.10
2022-10-31T16:19:58.951Z,93.10
2022-10-31T16:22:29.998Z,93.10
2022-10-31T16:25:03.260Z,93.10
2022-10-31T16:27:34.658Z,93.20
2022-10-31T16:30:05.829Z,93.20
2022-10-31T16:32:36.809Z,93.30
2022-10-31T16:35:25.346Z,93.40
2022-10-31T16:37:54.156Z,93.40
2022-10-31T16:40:22.655Z,93.50
2022-10-31T16:42:53.005Z,93.50
2022-10-31T16:45:24.462Z,93.60
2022-10-31T16:47:53.532Z,93.60
2022-10-31T16:50:24.188Z,93.80
2022-10-31T16:53:12.516Z,93.80
2022-10-31T16:55:45.792Z,93.90
2022-10-31T16:58:25.128Z,93.80
2022-10-31T17:00:53.813Z,93.80
2022-10-31T17:03:22.506Z,93.80
2022-10-31T17:05:50.987Z,93.80
2022-10-31T17:08:19.708Z,93.80
2022-10-31T17:10:49.995Z,93.80
2022-10-31T17:13:23.657Z,93.70
2022-10-31T17:15:54.940Z,93.80
2022-10-31T17:18:27.590Z,93.80
2022-10-31T17:20:59.127Z,93.70
2022-10-31T17:23:27.593Z,93.70
2022-10-31T17:25:56.004Z,93.70
2022-10-31T17:28:26.532Z,93.80
2022-10-31T17:30:58.299Z,93.70
2022-10-31T17:33:26.950Z,93.70
2022-10-31T17:35:55.453Z,93.70
2022-10-31T17:38:23.821Z,93.70
2022-10-31T17:40:52.116Z,93.70
2022-10-31T17:43:20.380Z,93.70
2022-10-31T17:45:49.986Z,93.70
2022-10-31T17:48:18.241Z,93.70
2022-10-31T17:50:46.531Z,93.70
2022-10-31T17:53:14.853Z,93.70
2022-10-31T17:55:43.048Z,93.70
2022-10-31T17:58:12.285Z,93.70
2022-10-31T18:00:44.742Z,94.10
2022-10-31T18:03:16.981Z,93.70
2022-10-31T18:05:53.221Z,93.70
2022-10-31T18:08:21.601Z,93.70
2022-10-31T18:10:49.815Z,93.80
2022-10-31T18:13:21.167Z,93.80
2022-10-31T18:15:49.680Z,93.80
2022-10-31T18:18:19.368Z,93.70
2022-10-31T18:20:47.691Z,93.70
2022-10-31T18:23:15.996Z,93.80
2022-10-31T18:25:44.239Z,94.10
2022-10-31T18:28:12.578Z,93.70
2022-10-31T18:30:41.816Z,93.70
2022-10-31T18:33:10.269Z,93.70
2022-10-31T18:35:40.682Z,93.60
2022-10-31T18:38:09.832Z,93.60
2022-10-31T18:40:39.306Z,93.60
2022-10-31T18:43:07.605Z,93.60
2022-10-31T18:45:55.003Z,93.60
2022-10-31T18:48:24.248Z,93.90
2022-10-31T18:50:57.872Z,93.50
2022-10-31T18:53:26.288Z,93.50
2022-10-31T18:55:54.671Z,93.50
2022-10-31T18:58:23.108Z,93.50
2022-10-31T19:00:51.437Z,93.50
2022-10-31T19:03:25.731Z,93.50
2022-10-31T19:05:57.272Z,93.50
2022-10-31T19:08:25.527Z,93.50
2022-10-31T19:10:53.906Z,93.40
2022-10-31T19:13:22.237Z,93.40
2022-10-31T19:15:50.428Z,93.40
2022-10-31T19:18:19.473Z,93.40
2022-10-31T19:20:47.650Z,93.40
2022-10-31T19:23:17.706Z,93.40
2022-10-31T19:25:45.909Z,93.40
2022-10-31T19:28:14.097Z,93.80
2022-10-31T19:30:42.968Z,93.40
2022-10-31T19:33:11.119Z,93.30
2022-10-31T19:35:39.270Z,93.30
2022-10-31T19:38:07.453Z,93.30
2022-10-31T19:40:37.749Z,93.60
2022-10-31T19:43:06.036Z,93.30
2022-10-31T19:45:34.178Z,93.20
2022-10-31T19:48:02.607Z,93.20
2022-10-31T19:50:31.149Z,93.20
2022-10-31T19:52:59.986Z,93.20
2022-10-31T19:55:28.281Z,93.20
2022-10-31T19:58:01.992Z,93.20
2022-10-31T20:00:30.563Z,93.20
2022-10-31T20:02:59.996Z,93.20
2022-10-31T20:05:28.410Z,93.60
2022-10-31T20:07:57.569Z,93.20
2022-10-31T20:10:26.136Z,93.20
2022-10-31T20:12:54.305Z,93.20
2022-10-31T20:15:23.906Z,93.20
2022-10-31T20:17:52.089Z,93.20
2022-10-31T20:20:20.318Z,93.20
2022-10-31T20:22:50.564Z,93.20
2022-10-31T20:25:19.134Z,93.20
2022-10-31T20:27:47.334Z,93.20
2022-10-31T20:30:15.570Z,93.20
2022-10-31T20:32:49.793Z,93.10
2022-10-31T20:35:18.505Z,93.20
2022-10-31T20:37:46.723Z,93.10
2022-10-31T20:40:14.861Z,93.20
2022-10-31T20:42:46.281Z,93.10
2022-10-31T20:45:14.633Z,93.10
2022-10-31T20:47:44.431Z,93.10
2022-10-31T20:50:12.606Z,93.10
2022-10-31T20:52:41.365Z,93.10
2022-10-31T20:55:10.783Z,93.10
2022-10-31T20:57:39.241Z,93.10
2022-10-31T21:00:12.099Z,93.10
2022-10-31T21:02:42.636Z,93.10
2022-10-31T21:05:14.418Z,93.10
2022-10-31T21:07:42.803Z,93.10
2022-10-31T21:10:15.643Z,93.10
2022-10-31T21:12:44.993Z,93.10
2022-10-31T21:15:15.180Z,93.00
2022-10-31T21:17:45.734Z,93.10
2022-10-31T21:20:15.410Z,93.10
2022-10-31T21:22:43.625Z,93.00
2022-10-31T21:25:11.787Z,93.10
2022-10-31T21:27:39.972Z,93.40
2022-10-31T21:30:08.808Z,93.10
2022-10-31T21:32:37.018Z,93.10
2022-10-31T21:35:05.852Z,93.10
2022-10-31T21:37:35.413Z,93.10
2022-10-31T21:40:03.856Z,93.10
2022-10-31T21:42:32.201Z,93.40
2022-10-31T21:45:00.401Z,93.10
2022-10-31T21:47:28.522Z,93.10
2022-10-31T21:49:56.725Z,93.10
2022-10-31T21:52:24.880Z,93.10
2022-10-31T21:54:53.436Z,93.00
2022-10-31T21:59:50.761Z,93.00
2022-10-31T22:02:19.063Z,93.00
2022-10-31T22:04:50.173Z,93.10
2022-10-31T22:07:18.519Z,93.10
2022-10-31T22:09:47.363Z,93.50
2022-10-31T22:12:17.650Z,93.00
2022-10-31T22:14:45.903Z,93.00
2022-10-31T22:17:14.122Z,93.10
2022-10-31T22:19:42.389Z,93.00
2022-10-31T22:22:13.015Z,93.00
2022-10-31T22:24:59.451Z,93.00
2022-10-31T22:27:32.574Z,93.00
2022-10-31T22:30:03.517Z,93.00
2022-10-31T22:32:39.759Z,93.00
2022-10-31T22:35:08.702Z,93.00
2022-10-31T22:37:47.935Z,93.00
2022-10-31T22:40:17.994Z,93.00
2022-10-31T22:42:50.568Z,93.00
2022-10-31T22:45:18.816Z,93.00
2022-10-31T22:47:57.000Z,93.00
2022-10-31T22:50:25.954Z,93.00
2022-10-31T22:52:58.225Z,93.00
2022-10-31T22:55:29.154Z,93.30
2022-10-31T22:58:12.257Z,93.00
2022-10-31T23:00:46.218Z,93.00
2022-10-31T23:03:19.940Z,93.00
2022-10-31T23:05:55.892Z,93.00
2022-10-31T23:08:26.998Z,93.00
2022-10-31T23:10:57.995Z,93.00
2022-10-31T23:13:46.635Z,93.00
2022-10-31T23:16:15.650Z,93.00
2022-10-31T23:18:50.571Z,93.00
2022-10-31T23:24:19.793Z,93.00
2022-10-31T23:27:10.065Z,93.00
2022-10-31T23:29:42.181Z,93.00
2022-10-31T23:32:15.882Z,93.00
2022-10-31T23:34:46.705Z,93.00
2022-10-31T23:37:15.515Z,93.00
2022-10-31T23:39:46.686Z,93.00
2022-10-31T23:42:15.487Z,92.90
2022-10-31T23:45:05.831Z,92.90
2022-10-31T23:47:43.464Z,92.90
2022-10-31T23:50:23.674Z,92.90
2022-10-31T23:52:59.941Z,92.90
2022-10-31T23:55:43.574Z,92.90
